Time;durP1;ratioP1;P1;durP2;ratioP2;P2;SDS_P1;SDS_P2;PMS_P1;PMS_P2;Temp;Humidity;BMP_temperature;BMP_pressure;BME280_temperature;BME280_humidity;BME280_pressure;Samples;Min_cycle;Max_cycle;Signal;HPM_P1;HPM_P2
2023/03/30 00:00:17;;;;;;;14.13;11.93;;;11.30;99.90;;;;;;5037531;28;20528;-42
2023/03/30 00:02:49;;;;;;;15.95;12.10;;;11.40;99.90;;;;;;5036679;28;20120;-48
2023/03/30 00:05:16;;;;;;;16.70;11.35;;;11.40;99.90;;;;;;5037220;28;20574;-39
2023/03/30 00:07:43;;;;;;;13.30;11.82;;;11.30;99.90;;;;;;5037732;28;20290;-44
2023/03/30 00:10:16;;;;;;;14.50;11.30;;;11.30;99.90;;;;;;5037846;28;20041;-42
2023/03/30 00:12:44;;;;;;;13.10;11.75;;;11.30;99.90;;;;;;5030889;28;20087;-44
2023/03/30 00:15:11;;;;;;;16.58;11.05;;;11.30;99.90;;;;;;5029441;28;20562;-50
2023/03/30 00:17:37;;;;;;;17.25;11.50;;;11.30;99.90;;;;;;5036994;28;20098;-42
2023/03/30 00:20:10;;;;;;;14.13;10.98;;;11.30;99.90;;;;;;5036962;28;20359;-43
2023/03/30 00:22:37;;;;;;;18.25;12.48;;;11.30;99.90;;;;;;5036466;28;20596;-44
2023/03/30 00:25:04;;;;;;;12.40;10.85;;;11.30;99.90;;;;;;5036242;28;20045;-47
2023/03/30 00:27:30;;;;;;;15.25;11.27;;;11.30;99.90;;;;;;5034843;28;20653;-44
2023/03/30 00:29:55;;;;;;;14.35;11.18;;;11.20;99.90;;;;;;5036614;28;20055;-40
2023/03/30 00:32:21;;;;;;;12.95;10.88;;;11.30;99.90;;;;;;5028136;28;20057;-38
2023/03/30 00:34:47;;;;;;;13.15;10.50;;;11.20;99.90;;;;;;5031337;28;20048;-42
2023/03/30 00:37:14;;;;;;;12.80;9.63;;;11.30;99.90;;;;;;5036522;28;20045;-47
2023/03/30 00:39:40;;;;;;;12.35;11.05;;;11.20;99.90;;;;;;5032086;28;20045;-55
2023/03/30 00:42:05;;;;;;;13.32;11.13;;;11.20;99.90;;;;;;5036847;28;20124;-39
2023/03/30 00:44:56;;;;;;;15.05;10.55;;;11.20;99.90;;;;;;5034703;28;20048;-37
2023/03/30 00:47:22;;;;;;;14.90;9.73;;;11.20;99.90;;;;;;5017766;28;20483;-48
2023/03/30 00:49:48;;;;;;;12.88;9.85;;;11.20;99.90;;;;;;5036701;28;20071;-43
2023/03/30 00:52:18;;;;;;;14.15;9.73;;;11.20;99.90;;;;;;5027511;28;20478;-48
2023/03/30 00:54:46;;;;;;;11.45;9.18;;;11.20;99.90;;;;;;5036403;28;20049;-50
2023/03/30 00:57:12;;;;;;;10.85;9.60;;;11.20;99.90;;;;;;5035263;28;20463;-41
2023/03/30 00:59:38;;;;;;;14.80;9.02;;;11.20;99.90;;;;;;5034913;28;20509;-43
2023/03/30 01:02:04;;;;;;;13.82;9.55;;;11.20;99.90;;;;;;5034439;28;20049;-44
2023/03/30 01:04:30;;;;;;;11.40;10.02;;;11.20;99.90;;;;;;5035959;28;20049;-47
2023/03/30 01:06:57;;;;;;;12.27;9.13;;;11.20;99.90;;;;;;5035500;28;20407;-45
2023/03/30 01:09:24;;;;;;;12.20;8.43;;;11.30;99.90;;;;;;5034710;28;20049;-41
2023/03/30 01:11:50;;;;;;;12.60;9.23;;;11.30;99.90;;;;;;5010133;28;20138;-50
2023/03/30 01:14:16;;;;;;;12.50;7.85;;;11.30;99.90;;;;;;5034043;28;20041;-49
2023/03/30 01:17:00;;;;;;;13.40;7.95;;;11.40;99.90;;;;;;5035704;28;20120;-49
2023/03/30 01:19:50;;;;;;;13.05;8.27;;;11.40;99.90;;;;;;5024882;28;20151;-39
2023/03/30 01:22:35;;;;;;;11.00;8.20;;;11.40;99.90;;;;;;5031129;28;20052;-50
2023/03/30 01:25:26;;;;;;;10.13;8.07;;;11.40;99.90;;;;;;5029518;28;20406;-39
2023/03/30 01:28:14;;;;;;;9.95;7.18;;;11.40;99.90;;;;;;5035838;28;20392;-37
2023/03/30 01:30:54;;;;;;;13.23;6.90;;;11.40;99.90;;;;;;5035230;28;20044;-52
2023/03/30 01:33:42;;;;;;;22.17;7.53;;;11.40;99.90;;;;;;5023024;28;20171;-42
2023/03/30 01:36:27;;;;;;;11.23;6.55;;;11.40;99.90;;;;;;5036114;28;20048;-44
2023/03/30 01:38:52;;;;;;;15.85;6.88;;;11.40;99.90;;;;;;5013305;28;20084;-50
2023/03/30 01:41:48;;;;;;;8.60;5.93;;;11.40;99.90;;;;;;5033976;28;20144;-43
2023/03/30 01:44:29;;;;;;;14.43;6.03;;;11.40;99.90;;;;;;5035966;28;20075;-46
2023/03/30 01:47:25;;;;;;;11.52;5.80;;;11.40;99.90;;;;;;5019896;28;20403;-42
2023/03/30 01:50:01;;;;;;;14.02;5.78;;;11.40;99.90;;;;;;5035188;28;20378;-41
2023/03/30 01:52:30;;;;;;;9.73;5.47;;;11.40;99.90;;;;;;5024617;28;20440;-50
2023/03/30 01:55:09;;;;;;;11.48;6.45;;;11.40;99.90;;;;;;5035103;28;20406;-38
2023/03/30 01:57:49;;;;;;;10.75;6.20;;;11.40;99.90;;;;;;5036072;28;20048;-45
2023/03/30 02:00:20;;;;;;;13.25;6.82;;;11.40;99.90;;;;;;5035557;28;20152;-49
2023/03/30 02:03:00;;;;;;;10.05;5.60;;;11.30;99.90;;;;;;5017975;28;20052;-50
2023/03/30 02:05:27;;;;;;;12.95;6.32;;;11.30;99.90;;;;;;5032724;28;20044;-50
2023/03/30 02:07:58;;;;;;;10.30;5.63;;;11.20;99.90;;;;;;5034802;28;20048;-44
2023/03/30 02:10:27;;;;;;;12.77;5.28;;;11.20;99.90;;;;;;5036351;28;20092;-45
2023/03/30 02:12:57;;;;;;;9.15;5.55;;;11.10;99.90;;;;;;5039891;28;20049;-48
2023/03/30 02:15:25;;;;;;;13.48;5.45;;;11.10;99.90;;;;;;5039217;28;20112;-48
2023/03/30 02:17:50;;;;;;;11.60;5.60;;;11.10;99.90;;;;;;5031356;28;20143;-46
2023/03/30 02:20:17;;;;;;;8.98;4.70;;;11.00;99.90;;;;;;5034434;28;20044;-50
2023/03/30 02:22:44;;;;;;;9.98;5.22;;;11.00;99.90;;;;;;5039519;28;20055;-50
2023/03/30 02:25:11;;;;;;;9.32;5.20;;;11.00;99.90;;;;;;5038789;28;20049;-51
2023/03/30 02:27:37;;;;;;;11.18;5.40;;;11.00;99.90;;;;;;5039607;28;20479;-38
2023/03/30 02:30:06;;;;;;;11.02;4.53;;;11.00;99.90;;;;;;5039074;28;20098;-41
2023/03/30 02:32:41;;;;;;;11.13;5.25;;;11.10;99.90;;;;;;5030316;28;20190;-37
2023/03/30 02:35:18;;;;;;;10.50;5.13;;;11.10;99.90;;;;;;5034569;28;20114;-40
2023/03/30 02:37:52;;;;;;;15.73;5.72;;;11.20;99.90;;;;;;5039847;28;20828;-46
2023/03/30 02:40:39;;;;;;;8.43;4.85;;;11.20;99.90;;;;;;5038875;28;20131;-42
2023/03/30 02:43:37;;;;;;;9.75;4.70;;;11.30;99.90;;;;;;5037799;28;20045;-41
2023/03/30 02:46:14;;;;;;;14.15;5.63;;;11.30;99.90;;;;;;5023723;28;20120;-44
2023/03/30 02:49:02;;;;;;;8.10;5.00;;;11.30;99.90;;;;;;5015104;28;20152;-50
2023/03/30 02:51:49;;;;;;;11.27;4.50;;;11.40;99.90;;;;;;5028148;28;20406;-44
2023/03/30 02:54:22;;;;;;;13.32;5.22;;;11.30;99.90;;;;;;5038072;28;20082;-41
2023/03/30 02:57:00;;;;;;;;;;;11.20;99.90;;;;;;5038462;28;20037;-40
2023/03/30 02:59:39;;;;;;;12.73;5.85;;;11.20;99.90;;;;;;5038531;28;19921;-42
2023/03/30 03:02:16;;;;;;;9.40;4.40;;;11.20;99.90;;;;;;5037490;28;20045;-45
2023/03/30 03:04:45;;;;;;;11.13;4.88;;;11.10;99.90;;;;;;5031485;28;20209;-46
2023/03/30 03:07:12;;;;;;;10.35;4.35;;;11.10;99.90;;;;;;5031973;28;20106;-51
2023/03/30 03:09:38;;;;;;;11.18;4.43;;;11.00;99.90;;;;;;5038243;28;20124;-39
2023/03/30 03:12:05;;;;;;;10.60;4.75;;;11.00;99.90;;;;;;5038326;28;20421;-45
2023/03/30 03:14:31;;;;;;;11.48;4.60;;;11.00;99.90;;;;;;5037925;28;20052;-48
2023/03/30 03:16:56;;;;;;;11.00;4.55;;;10.90;99.90;;;;;;5035803;28;20041;-47
2023/03/30 03:19:22;;;;;;;9.40;4.50;;;10.90;99.90;;;;;;5038099;28;20102;-42
2023/03/30 03:21:48;;;;;;;12.60;4.90;;;10.90;99.90;;;;;;5036686;28;20037;-41
2023/03/30 03:24:16;;;;;;;10.32;4.50;;;11.00;99.90;;;;;;5038001;28;20079;-47
2023/03/30 03:26:42;;;;;;;10.95;4.43;;;11.00;99.90;;;;;;5037571;28;20072;-46
2023/03/30 03:29:08;;;;;;;9.35;4.45;;;11.00;99.90;;;;;;5038061;28;20049;-43
2023/03/30 03:31:34;;;;;;;10.73;4.57;;;11.00;99.90;;;;;;5035047;28;20064;-42
2023/03/30 03:34:00;;;;;;;13.50;5.13;;;11.00;99.90;;;;;;5026879;28;20475;-43
2023/03/30 03:36:27;;;;;;;9.85;4.60;;;11.10;99.90;;;;;;5035425;28;20137;-47
2023/03/30 03:38:53;;;;;;;10.18;3.85;;;11.10;99.90;;;;;;5038017;28;20052;-49
2023/03/30 03:41:19;;;;;;;10.15;3.63;;;11.10;99.90;;;;;;5037307;28;20041;-37
2023/03/30 03:43:44;;;;;;;11.75;4.72;;;11.10;99.90;;;;;;5038567;28;20059;-45
2023/03/30 03:46:10;;;;;;;10.15;3.90;;;11.10;99.90;;;;;;5020493;28;20037;-51
2023/03/30 03:48:37;;;;;;;13.68;3.90;;;11.20;99.90;;;;;;5038705;28;20053;-38
2023/03/30 03:51:04;;;;;;;12.52;4.07;;;11.20;99.90;;;;;;5027924;28;20045;-45
2023/03/30 03:53:30;;;;;;;10.75;3.45;;;11.20;99.90;;;;;;5035807;28;20056;-48
2023/03/30 03:55:56;;;;;;;9.40;3.30;;;11.20;99.90;;;;;;5036678;28;20048;-39
2023/03/30 03:58:22;;;;;;;9.52;3.33;;;11.20;99.90;;;;;;5037481;28;20049;-43
2023/03/30 04:00:48;;;;;;;8.05;3.83;;;11.20;99.90;;;;;;5029687;28;20161;-48
2023/03/30 04:03:14;;;;;;;9.48;3.10;;;11.20;99.90;;;;;;5037452;28;20049;-50
2023/03/30 04:05:40;;;;;;;8.23;3.95;;;11.30;99.90;;;;;;5034635;28;20052;-51
2023/03/30 04:08:10;;;;;;;11.68;3.38;;;11.30;99.90;;;;;;5037323;28;20467;-37
2023/03/30 04:10:40;;;;;;;9.38;3.40;;;11.30;99.90;;;;;;5057473;23;20443;-38
2023/03/30 04:13:06;;;;;;;14.20;3.78;;;11.20;99.90;;;;;;5056854;28;20103;-46
2023/03/30 04:15:32;;;;;;;14.55;3.78;;;11.20;99.90;;;;;;5055604;28;20494;-40
2023/03/30 04:17:58;;;;;;;11.77;4.13;;;11.20;99.90;;;;;;5055334;28;20168;-44
2023/03/30 04:20:25;;;;;;;7.88;2.92;;;11.20;99.90;;;;;;5055875;28;20056;-43
2023/03/30 04:22:52;;;;;;;10.07;4.13;;;11.20;99.90;;;;;;5057032;28;20040;-42
2023/03/30 04:25:20;;;;;;;15.48;3.65;;;11.20;99.90;;;;;;5056572;28;20124;-49
2023/03/30 04:27:49;;;;;;;8.93;3.20;;;11.20;99.90;;;;;;5057175;28;20566;-51
2023/03/30 04:30:15;;;;;;;9.75;3.33;;;11.30;99.90;;;;;;5056534;28;20091;-50
2023/03/30 04:32:40;;;;;;;13.70;3.53;;;11.30;99.90;;;;;;5054885;28;20511;-48
2023/03/30 04:35:07;;;;;;;12.45;4.10;;;11.30;99.90;;;;;;5056634;28;20080;-38
2023/03/30 04:37:34;;;;;;;13.52;3.53;;;11.40;99.90;;;;;;5056713;28;20037;-40
2023/03/30 04:40:00;;;;;;;10.70;3.33;;;11.40;99.90;;;;;;5057084;28;20066;-49
2023/03/30 04:42:32;;;;;;;14.40;4.15;;;11.40;99.90;;;;;;5055175;28;20105;-38
2023/03/30 04:44:59;;;;;;;19.33;4.82;;;11.50;99.90;;;;;;5056117;28;20509;-41
2023/03/30 04:47:26;;;;;;;21.48;5.15;;;11.50;99.90;;;;;;5056790;28;20070;-41
2023/03/30 04:49:52;;;;;;;13.00;4.38;;;11.50;99.90;;;;;;5043457;28;20050;-43
2023/03/30 04:52:19;;;;;;;14.38;4.47;;;11.50;99.90;;;;;;5060042;28;20048;-45
2023/03/30 04:54:45;;;;;;;12.30;4.10;;;11.50;99.90;;;;;;5042451;28;20048;-50
2023/03/30 04:57:12;;;;;;;14.07;4.40;;;11.50;99.90;;;;;;5044534;28;20045;-49
2023/03/30 04:59:39;;;;;;;13.25;4.68;;;11.50;99.90;;;;;;5054666;28;20040;-48
2023/03/30 05:02:05;;;;;;;14.85;4.00;;;11.50;99.90;;;;;;5055819;28;20049;-47
2023/03/30 05:04:31;;;;;;;14.32;3.72;;;11.50;99.90;;;;;;5055442;28;20052;-44
2023/03/30 05:06:56;;;;;;;13.20;3.75;;;11.40;99.90;;;;;;5056010;28;20040;-38
2023/03/30 05:09:23;;;;;;;15.93;3.97;;;11.40;99.90;;;;;;5055769;28;20071;-37
2023/03/30 05:11:49;;;;;;;11.23;4.03;;;11.40;99.90;;;;;;5055664;28;20143;-45
2023/03/30 05:14:15;;;;;;;13.35;4.05;;;11.40;99.90;;;;;;5054901;28;20048;-46
2023/03/30 05:16:40;;;;;;;13.98;4.90;;;11.40;99.90;;;;;;5055152;28;20033;-45
2023/03/30 05:19:07;;;;;;;13.27;4.57;;;11.40;99.90;;;;;;5042581;28;20052;-41
2023/03/30 05:21:32;;;;;;;11.85;4.07;;;11.40;99.90;;;;;;5055552;28;20469;-44
2023/03/30 05:23:58;;;;;;;12.07;4.25;;;11.40;99.90;;;;;;5055893;28;20044;-46
2023/03/30 05:26:25;;;;;;;13.27;4.53;;;11.40;99.90;;;;;;5056146;28;20605;-45
2023/03/30 05:28:51;;;;;;;15.48;4.60;;;11.40;99.90;;;;;;5056552;28;20304;-52
2023/03/30 05:31:18;;;;;;;10.85;4.43;;;11.40;99.90;;;;;;5055942;28;20045;-49
2023/03/30 05:33:44;;;;;;;9.50;3.63;;;11.40;99.90;;;;;;5056117;28;20048;-45
2023/03/30 05:36:10;;;;;;;10.93;4.20;;;11.50;99.90;;;;;;5055437;28;20422;-51
2023/03/30 05:38:36;;;;;;;10.32;4.78;;;11.40;99.90;;;;;;5055904;28;20106;-41
2023/03/30 05:41:05;;;;;;;10.38;3.90;;;11.40;99.90;;;;;;5055524;28;20076;-45
2023/03/30 05:43:32;;;;;;;9.82;3.55;;;11.50;99.90;;;;;;5055523;28;20132;-43
2023/03/30 05:45:57;;;;;;;10.23;4.20;;;11.50;99.90;;;;;;5055316;28;20345;-47
2023/03/30 05:48:23;;;;;;;12.38;3.50;;;11.50;99.90;;;;;;5055703;28;20482;-39
2023/03/30 05:50:49;;;;;;;10.55;4.10;;;11.50;99.90;;;;;;5058365;28;20077;-40
2023/03/30 05:53:15;;;;;;;13.20;5.05;;;11.50;99.90;;;;;;5056782;28;20052;-43
2023/03/30 05:55:45;;;;;;;11.13;3.58;;;11.50;99.90;;;;;;5053867;28;20134;-47
2023/03/30 05:58:12;;;;;;;13.63;4.05;;;11.50;99.90;;;;;;5055667;28;20079;-50
2023/03/30 06:00:40;;;;;;;11.93;4.28;;;11.50;99.90;;;;;;5055690;28;20106;-38
2023/03/30 06:03:06;;;;;;;10.23;4.47;;;11.60;99.90;;;;;;5055993;28;20147;-40
2023/03/30 06:05:34;;;;;;;10.90;4.60;;;11.50;99.90;;;;;;5054676;28;20378;-39
2023/03/30 06:08:00;;;;;;;11.52;4.03;;;11.60;99.90;;;;;;5054097;28;20362;-47
2023/03/30 06:10:26;;;;;;;11.52;4.53;;;11.60;99.90;;;;;;5051212;28;20612;-47
2023/03/30 06:12:52;;;;;;;14.38;4.60;;;11.60;99.90;;;;;;5043258;28;20123;-43
2023/03/30 06:15:18;;;;;;;11.05;4.80;;;11.60;99.90;;;;;;5053334;28;20063;-45
2023/03/30 06:17:43;;;;;;;12.80;4.20;;;11.70;99.90;;;;;;5047523;28;20142;-41
2023/03/30 06:20:11;;;;;;;12.38;4.88;;;11.70;99.90;;;;;;5047013;28;20050;-46
2023/03/30 06:22:38;;;;;;;15.70;5.18;;;11.70;99.90;;;;;;5051422;28;20048;-48
2023/03/30 06:25:04;;;;;;;17.38;4.30;;;11.70;99.90;;;;;;5042243;28;20155;-43
2023/03/30 06:27:31;;;;;;;15.00;4.07;;;11.70;99.90;;;;;;5054877;28;20063;-46
2023/03/30 06:29:57;;;;;;;12.48;3.97;;;11.70;99.90;;;;;;5053044;28;20044;-44
2023/03/30 06:32:24;;;;;;;13.38;3.88;;;11.70;99.90;;;;;;5048194;28;20045;-42
2023/03/30 06:34:49;;;;;;;17.20;4.20;;;11.70;99.90;;;;;;5036507;28;20087;-47
2023/03/30 06:37:15;;;;;;;16.67;4.75;;;11.60;99.90;;;;;;5054538;28;20107;-40
2023/03/30 06:39:41;;;;;;;18.98;4.57;;;11.60;99.90;;;;;;5052243;28;20127;-44
2023/03/30 06:42:06;;;;;;;15.80;4.78;;;11.60;99.90;;;;;;5054201;28;20051;-41
2023/03/30 06:44:33;;;;;;;21.80;5.05;;;11.70;99.90;;;;;;5039482;28;20477;-50
2023/03/30 06:46:59;;;;;;;17.33;5.25;;;11.70;99.90;;;;;;5053335;28;20383;-44
2023/03/30 06:49:25;;;;;;;22.90;4.63;;;11.60;99.90;;;;;;5054593;28;20133;-44
2023/03/30 06:51:51;;;;;;;17.67;5.18;;;11.60;99.90;;;;;;5057028;28;20131;-43
2023/03/30 06:54:19;;;;;;;18.77;5.20;;;11.60;99.90;;;;;;5054780;28;20044;-54
2023/03/30 06:56:46;;;;;;;14.52;3.80;;;11.70;99.90;;;;;;5055445;28;20578;-52
2023/03/30 06:59:12;;;;;;;15.45;4.93;;;11.70;99.90;;;;;;5039864;28;20127;-40
2023/03/30 07:01:38;;;;;;;15.52;4.30;;;11.60;99.90;;;;;;5054222;28;20483;-45
2023/03/30 07:04:04;;;;;;;14.38;4.13;;;11.60;99.90;;;;;;5044831;28;20097;-45
2023/03/30 07:06:30;;;;;;;14.02;3.83;;;11.70;99.90;;;;;;5048708;28;20070;-47
2023/03/30 07:08:56;;;;;;;14.57;3.90;;;11.60;99.90;;;;;;5052976;28;20395;-42
2023/03/30 07:11:22;;;;;;;15.90;4.57;;;11.60;99.90;;;;;;5055134;28;20037;-44
2023/03/30 07:13:48;;;;;;;19.17;4.80;;;11.60;99.90;;;;;;5039847;28;20523;-47
2023/03/30 07:16:13;;;;;;;21.85;5.15;;;11.60;99.90;;;;;;5056702;28;20044;-44
2023/03/30 07:18:39;;;;;;;15.52;4.10;;;11.50;99.90;;;;;;5047380;28;20036;-54
2023/03/30 07:21:06;;;;;;;19.13;4.75;;;11.50;99.90;;;;;;5037356;28;20087;-41
2023/03/30 07:23:32;;;;;;;18.20;4.60;;;11.50;99.90;;;;;;5054273;28;20743;-42
2023/03/30 07:25:57;;;;;;;20.00;4.47;;;11.40;99.90;;;;;;5041905;28;20040;-43
2023/03/30 07:28:23;;;;;;;24.00;4.43;;;11.40;99.90;;;;;;5052547;28;20053;-44
2023/03/30 07:30:49;;;;;;;18.17;5.10;;;11.40;99.90;;;;;;5046713;28;20390;-46
2023/03/30 07:33:15;;;;;;;26.15;5.55;;;11.40;99.90;;;;;;5052869;28;20577;-46
2023/03/30 07:35:45;;;;;;;21.52;5.22;;;11.30;99.90;;;;;;5057057;28;20040;-46
2023/03/30 07:38:13;;;;;;;21.48;5.50;;;11.30;99.90;;;;;;5056080;28;20060;-42
2023/03/30 07:40:39;;;;;;;25.45;6.50;;;11.30;99.90;;;;;;5057140;28;20090;-43
2023/03/30 07:43:06;;;;;;;27.17;4.82;;;11.30;99.90;;;;;;5039838;28;20051;-46
2023/03/30 07:45:32;;;;;;;29.73;7.30;;;11.30;99.90;;;;;;5045105;28;20040;-38
2023/03/30 07:47:58;;;;;;;22.10;5.35;;;11.30;99.90;;;;;;5054353;28;20049;-47
2023/03/30 07:50:24;;;;;;;21.23;5.63;;;11.20;99.90;;;;;;5045375;28;20052;-39
2023/03/30 07:52:50;;;;;;;32.70;6.65;;;11.20;99.90;;;;;;5044077;28;20060;-50
2023/03/30 07:55:16;;;;;;;25.45;6.45;;;11.20;99.90;;;;;;5047526;28;20052;-49
2023/03/30 07:57:42;;;;;;;25.60;5.65;;;11.20;99.90;;;;;;5051247;28;20079;-38
2023/03/30 08:00:09;;;;;;;25.75;6.68;;;11.20;99.90;;;;;;5053776;28;20124;-47
2023/03/30 08:02:36;;;;;;;31.33;6.55;;;11.20;99.90;;;;;;5055561;28;20097;-41
2023/03/30 08:05:02;;;;;;;27.35;6.00;;;11.20;99.90;;;;;;5055330;28;20101;-38
2023/03/30 08:07:29;;;;;;;31.63;6.57;;;11.20;99.90;;;;;;5050806;28;20336;-47
2023/03/30 08:09:54;;;;;;;25.55;6.60;;;11.20;99.90;;;;;;5053723;28;20793;-44
2023/03/30 08:12:20;;;;;;;28.27;7.15;;;11.20;99.90;;;;;;5042528;28;20041;-47
2023/03/30 08:14:46;;;;;;;29.10;7.63;;;11.20;99.90;;;;;;5043463;28;20047;-49
2023/03/30 08:17:12;;;;;;;29.40;6.20;;;11.10;99.90;;;;;;5052538;28;20211;-41
2023/03/30 08:19:38;;;;;;;34.35;6.93;;;11.20;99.90;;;;;;5044494;28;20471;-49
2023/03/30 08:22:03;;;;;;;35.35;7.57;;;11.20;99.90;;;;;;5048670;28;20401;-51
2023/03/30 08:24:29;;;;;;;33.17;6.22;;;11.30;99.90;;;;;;5050199;28;20872;-46
2023/03/30 08:26:55;;;;;;;30.17;6.72;;;11.40;99.90;;;;;;5039930;28;20117;-49
2023/03/30 08:29:21;;;;;;;27.02;6.35;;;11.40;99.90;;;;;;5039408;28;20048;-48
2023/03/30 08:31:46;;;;;;;34.83;7.05;;;11.50;99.90;;;;;;5037530;28;20037;-49
2023/03/30 08:34:13;;;;;;;31.27;7.78;;;11.60;99.90;;;;;;5040031;28;20475;-40
2023/03/30 08:36:39;;;;;;;30.45;6.70;;;11.70;99.90;;;;;;5054922;28;20054;-46
2023/03/30 08:39:04;;;;;;;32.17;8.40;;;11.80;99.90;;;;;;5051315;28;20562;-45
2023/03/30 08:41:48;;;;;;;27.58;6.72;;;11.90;99.90;;;;;;5051694;28;20114;-49
2023/03/30 08:44:49;;;;;;;36.70;8.05;;;11.90;99.90;;;;;;5049815;28;20641;-47
2023/03/30 08:47:28;;;;;;;32.55;7.35;;;12.00;99.90;;;;;;5021451;28;20084;-47
2023/03/30 08:50:13;;;;;;;33.28;6.50;;;12.10;99.90;;;;;;5014652;28;20054;-40
2023/03/30 08:52:40;;;;;;;34.83;7.43;;;12.20;99.90;;;;;;5031531;28;20119;-39
2023/03/30 08:55:41;;;;;;;30.88;8.10;;;12.30;99.90;;;;;;5009357;28;20239;-45
2023/03/30 08:58:38;;;;;;;33.72;7.20;;;12.50;99.90;;;;;;5001560;28;20503;-41
2023/03/30 09:01:15;;;;;;;30.75;6.88;;;12.60;99.90;;;;;;5002531;28;20045;-46
2023/03/30 09:04:12;;;;;;;26.88;6.75;;;12.70;99.90;;;;;;5021626;28;20095;-49
2023/03/30 09:06:56;;;;;;;33.50;8.98;;;12.80;99.90;;;;;;4993338;28;20057;-44
2023/03/30 09:09:23;;;;;;;;;;;12.90;99.90;;;;;;4993419;28;20049;-42
2023/03/30 09:12:03;;;;;;;29.75;6.85;;;13.00;99.90;;;;;;4978032;28;19929;-38
2023/03/30 09:14:52;;;;;;;29.58;7.40;;;12.90;99.90;;;;;;4961688;28;20617;-42
2023/03/30 09:17:41;;;;;;;34.03;8.77;;;12.90;99.90;;;;;;4974106;28;20140;-49
2023/03/30 09:20:28;;;;;;;30.13;8.10;;;12.90;99.90;;;;;;4957447;28;20078;-51
2023/03/30 09:22:57;;;;;;;28.45;6.68;;;12.90;99.90;;;;;;5004046;28;20491;-45
2023/03/30 09:25:44;;;;;;;32.22;7.03;;;12.90;99.90;;;;;;5031765;28;20045;-40
2023/03/30 09:28:22;;;;;;;28.42;6.22;;;12.80;99.90;;;;;;5003107;28;20054;-56
2023/03/30 09:30:53;;;;;;;32.03;7.40;;;12.70;99.90;;;;;;5021274;28;20136;-46
2023/03/30 09:33:51;;;;;;;24.20;5.63;;;12.50;99.90;;;;;;5020138;28;20069;-45
2023/03/30 09:36:50;;;;;;;26.27;6.32;;;12.40;99.90;;;;;;5031952;28;20369;-45
2023/03/30 09:39:20;;;;;;;28.65;6.60;;;12.40;99.90;;;;;;5033013;28;20041;-50
2023/03/30 09:42:00;;;;;;;28.20;6.35;;;12.40;99.90;;;;;;5013756;28;20045;-45
2023/03/30 09:44:34;;;;;;;25.52;7.13;;;12.30;99.90;;;;;;5048864;28;20049;-43
2023/03/30 09:47:03;;;;;;;24.73;5.75;;;12.30;99.90;;;;;;5042970;28;20602;-42
2023/03/30 09:49:37;;;;;;;26.15;5.72;;;12.30;99.90;;;;;;5055248;28;20076;-45
2023/03/30 09:52:06;;;;;;;22.63;5.50;;;12.30;99.90;;;;;;5059294;28;20456;-47
2023/03/30 09:54:40;;;;;;;24.33;5.80;;;12.30;99.90;;;;;;5054714;28;20036;-41
2023/03/30 09:57:26;;;;;;;22.65;5.85;;;12.30;99.90;;;;;;5055456;28;20445;-45
2023/03/30 09:59:54;;;;;;;24.67;6.95;;;12.30;99.90;;;;;;5054883;28;20091;-42
2023/03/30 10:02:21;;;;;;;28.73;6.65;;;12.40;99.90;;;;;;5055269;28;20116;-48
2023/03/30 10:04:53;;;;;;;24.48;6.47;;;12.40;99.90;;;;;;5055170;28;20052;-44
2023/03/30 10:07:23;;;;;;;34.53;5.85;;;12.50;99.90;;;;;;5055024;28;20045;-43
2023/03/30 10:09:50;;;;;;;24.45;5.97;;;12.50;99.90;;;;;;5045913;28;20045;-48
2023/03/30 10:12:16;;;;;;;26.88;6.80;;;12.40;99.90;;;;;;5051550;28;20129;-51
2023/03/30 10:14:42;;;;;;;29.90;7.55;;;12.40;99.90;;;;;;5054766;28;20115;-47
2023/03/30 10:17:22;;;;;;;27.77;6.30;;;12.40;99.90;;;;;;5055405;28;20127;-51
2023/03/30 10:19:50;;;;;;;22.67;5.45;;;12.50;99.90;;;;;;5054742;28;20049;-43
2023/03/30 10:22:21;;;;;;;24.27;6.65;;;12.50;99.90;;;;;;5050176;28;20056;-49
2023/03/30 10:24:56;;;;;;;34.85;6.63;;;12.70;99.90;;;;;;5047384;28;20051;-45
2023/03/30 10:27:32;;;;;;;24.65;6.45;;;12.70;99.90;;;;;;5055217;28;20055;-41
2023/03/30 10:30:08;;;;;;;24.15;6.38;;;12.80;99.90;;;;;;5054754;28;20059;-45
2023/03/30 10:32:35;;;;;;;27.85;6.72;;;12.80;99.90;;;;;;5058899;28;20055;-47
2023/03/30 10:35:06;;;;;;;22.17;6.03;;;12.90;99.90;;;;;;5054906;28;20532;-46
2023/03/30 10:37:43;;;;;;;22.88;6.00;;;13.00;99.90;;;;;;5049254;28;20485;-41
2023/03/30 10:40:25;;;;;;;26.50;6.57;;;13.30;99.90;;;;;;5043811;28;20051;-43
2023/03/30 10:42:56;;;;;;;30.00;8.00;;;13.50;99.90;;;;;;5056043;28;20510;-45
2023/03/30 10:45:54;;;;;;;26.27;6.72;;;13.70;99.90;;;;;;5057342;28;20064;-46
2023/03/30 10:48:34;;;;;;;23.38;6.05;;;13.80;99.90;;;;;;5058730;28;20068;-48
2023/03/30 10:51:24;;;;;;;22.30;5.10;;;14.00;99.90;;;;;;5062625;28;20040;-48
2023/03/30 10:54:06;;;;;;;30.60;7.10;;;14.10;99.90;;;;;;5058838;28;20064;-47
2023/03/30 10:56:34;;;;;;;25.92;8.27;;;14.20;99.90;;;;;;5057637;28;20112;-45
2023/03/30 10:59:47;;;;;;;25.35;7.45;;;14.30;99.90;;;;;;5058859;28;20044;-45
2023/03/30 11:02:12;;;;;;;32.92;7.65;;;14.40;99.90;;;;;;5056090;28;20048;-39
2023/03/30 11:04:46;;;;;;;26.33;7.10;;;14.50;99.90;;;;;;5039011;28;20118;-52
2023/03/30 11:07:28;;;;;;;30.90;7.15;;;14.50;99.90;;;;;;5055438;28;20471;-44
2023/03/30 11:10:01;;;;;;;29.45;5.70;;;14.50;99.90;;;;;;5054911;28;20509;-44
2023/03/30 11:12:32;;;;;;;;;;;14.60;99.90;;;;;;5056206;28;20087;-44
2023/03/30 11:15:06;;;;;;;24.63;5.75;;;14.80;99.90;;;;;;5055031;28;20045;-43
2023/03/30 11:17:33;;;;;;;;;;;15.00;99.90;;;;;;5056037;28;20049;-44
2023/03/30 11:20:26;;;;;;;24.02;6.55;;;15.30;99.90;;;;;;5055293;28;20407;-50
2023/03/30 11:23:19;;;;;;;32.47;7.10;;;15.40;99.90;;;;;;5055371;28;20515;-46
2023/03/30 11:26:24;;;;;;;25.75;6.63;;;15.50;99.90;;;;;;5055092;28;20522;-46
2023/03/30 11:29:06;;;;;;;26.02;8.10;;;15.40;99.90;;;;;;4994726;28;20497;-49
2023/03/30 11:31:44;;;;;;;24.92;6.05;;;15.40;99.90;;;;;;4976122;28;20165;-46
2023/03/30 11:34:20;;;;;;;28.48;6.70;;;15.30;99.90;;;;;;4968629;28;20057;-55
2023/03/30 11:37:12;;;;;;;29.17;8.07;;;15.30;99.90;;;;;;4993846;28;20088;-47
2023/03/30 11:39:46;;;;;;;23.40;6.10;;;15.40;99.90;;;;;;4980943;28;20077;-42
2023/03/30 11:42:31;;;;;;;22.95;5.85;;;15.50;99.90;;;;;;4985094;28;20449;-44
2023/03/30 11:44:57;;;;;;;28.02;6.30;;;15.40;99.90;;;;;;4989016;28;20038;-39
2023/03/30 11:47:25;;;;;;;32.25;7.05;;;15.40;99.90;;;;;;4985711;28;20593;-46
2023/03/30 11:50:01;;;;;;;26.38;6.10;;;15.40;99.90;;;;;;4989911;28;20071;-51
2023/03/30 11:52:36;;;;;;;25.48;6.90;;;15.60;99.90;;;;;;4958478;28;20140;-41
2023/03/30 11:55:16;;;;;;;25.77;6.32;;;15.60;99.90;;;;;;4974754;28;20085;-39
2023/03/30 11:57:45;;;;;;;28.38;6.28;;;15.40;99.90;;;;;;4990565;28;20166;-39
2023/03/30 12:00:37;;;;;;;27.00;6.20;;;15.40;99.90;;;;;;4985564;28;20104;-51
2023/03/30 12:03:24;;;;;;;27.02;6.25;;;15.40;99.90;;;;;;4975182;28;20228;-38
2023/03/30 12:06:22;;;;;;;24.08;5.35;;;15.40;99.90;;;;;;5008467;28;20057;-44
2023/03/30 12:08:56;;;;;;;22.80;5.72;;;15.40;99.90;;;;;;5050855;28;20091;-51
2023/03/30 12:11:45;;;;;;;25.38;5.60;;;15.50;99.90;;;;;;5056837;28;20473;-38
2023/03/30 12:14:58;;;;;;;25.35;7.35;;;15.50;99.90;;;;;;5054955;28;20056;-45
2023/03/30 12:17:45;;;;;;;22.80;6.72;;;15.50;99.90;;;;;;5020041;28;20163;-48
2023/03/30 12:20:36;;;;;;;25.02;6.53;;;15.60;99.90;;;;;;5033717;28;20095;-48
2023/03/30 12:23:19;;;;;;;25.50;6.57;;;15.40;99.90;;;;;;5033954;28;20057;-47
2023/03/30 12:26:06;;;;;;;25.30;6.80;;;15.20;99.90;;;;;;5020384;28;20048;-49
2023/03/30 12:28:57;;;;;;;33.53;6.32;;;15.20;99.90;;;;;;5033769;28;20068;-39
2023/03/30 12:31:46;;;;;;;31.65;7.13;;;15.20;99.90;;;;;;5032814;28;20115;-40
2023/03/30 12:34:12;;;;;;;24.73;7.22;;;15.30;99.90;;;;;;5013491;28;20053;-39
2023/03/30 12:36:45;;;;;;;25.95;6.28;;;15.40;99.90;;;;;;5027236;28;20069;-51
2023/03/30 12:39:20;;;;;;;;;;;15.60;99.90;;;;;;5008148;28;20548;-52
2023/03/30 12:41:50;;;;;;;22.33;6.93;;;15.60;99.90;;;;;;5027658;28;19925;-54
2023/03/30 12:44:35;;;;;;;24.58;5.75;;;15.30;99.90;;;;;;4997379;28;20057;-47
2023/03/30 12:47:03;;;;;;;26.90;6.93;;;15.30;99.90;;;;;;5025887;28;20300;-48
2023/03/30 12:49:51;;;;;;;24.60;6.28;;;15.20;99.90;;;;;;5050242;28;20044;-49
2023/03/30 12:52:53;;;;;;;32.08;7.15;;;15.00;99.90;;;;;;5060121;28;20666;-47
2023/03/30 12:55:42;;;;;;;23.05;5.53;;;14.80;99.90;;;;;;5056177;28;20546;-38
2023/03/30 12:58:20;;;;;;;25.83;6.43;;;14.80;99.90;;;;;;5056313;28;20040;-45
2023/03/30 13:01:06;;;;;;;23.08;6.13;;;14.90;99.90;;;;;;5054007;28;20135;-50
2023/03/30 13:03:44;;;;;;;25.10;6.35;;;15.00;99.90;;;;;;5046360;28;20130;-40